sensor_id;sensor_type;location;lat;lon;timestamp;pressure;altitude;pressure_sealevel;temperature;humidity
58879;BME280;44660;42.664;23.266;2023-05-23T00:01:29;94444.41;;;12.92;74.31
58879;BME280;44660;42.664;23.266;2023-05-23T00:03:56;94433.16;;;12.85;74.14
58879;BME280;44660;42.664;23.266;2023-05-23T00:06:22;94436.94;;;12.89;74.00
58879;BME280;44660;42.664;23.266;2023-05-23T00:08:47;94436.38;;;12.87;74.02
58879;BME280;44660;42.664;23.266;2023-05-23T00:11:14;94408.28;;;12.69;74.19
58879;BME280;44660;42.664;23.266;2023-05-23T00:13:41;94424.91;;;12.81;74.10
58879;BME280;44660;42.664;23.266;2023-05-23T00:16:08;94431.56;;;12.79;74.43
58879;BME280;44660;42.664;23.266;2023-05-23T00:18:37;94414.97;;;12.71;75.00
58879;BME280;44660;42.664;23.266;2023-05-23T00:21:03;94419.19;;;12.62;74.59
58879;BME280;44660;42.664;23.266;2023-05-23T00:23:29;94427.22;;;12.67;74.89
58879;BME280;44660;42.664;23.266;2023-05-23T00:25:54;94432.78;;;12.66;75.33
58879;BME280;44660;42.664;23.266;2023-05-23T00:28:20;94422.09;;;12.61;75.62
58879;BME280;44660;42.664;23.266;2023-05-23T00:30:46;94422.09;;;12.61;74.92
58879;BME280;44660;42.664;23.266;2023-05-23T00:33:13;94410.88;;;12.53;74.66
58879;BME280;44660;42.664;23.266;2023-05-23T00:35:42;94433.56;;;12.56;74.84
58879;BME280;44660;42.664;23.266;2023-05-23T00:38:08;94436.22;;;12.56;74.96
58879;BME280;44660;42.664;23.266;2023-05-23T00:40:35;94427.66;;;12.54;74.11
58879;BME280;44660;42.664;23.266;2023-05-23T00:43:01;94437.25;;;12.50;74.61
58879;BME280;44660;42.664;23.266;2023-05-23T00:45:26;94434.00;;;12.43;74.55
58879;BME280;44660;42.664;23.266;2023-05-23T00:47:52;94433.47;;;12.40;75.14
58879;BME280;44660;42.664;23.266;2023-05-23T00:50:18;94432.34;;;12.36;75.48
58879;BME280;44660;42.664;23.266;2023-05-23T00:52:47;94418.47;;;12.29;76.01
58879;BME280;44660;42.664;23.266;2023-05-23T00:55:14;94428.06;;;12.35;75.47
58879;BME280;44660;42.664;23.266;2023-05-23T00:57:40;94434.50;;;12.34;75.56
58879;BME280;44660;42.664;23.266;2023-05-23T01:00:09;94430.72;;;12.30;75.34
58879;BME280;44660;42.664;23.266;2023-05-23T01:02:42;94435.25;;;12.30;76.08
58879;BME280;44660;42.664;23.266;2023-05-23T01:05:10;94426.97;;;12.26;76.26
58879;BME280;44660;42.664;23.266;2023-05-23T01:07:42;94433.91;;;12.27;76.19
58879;BME280;44660;42.664;23.266;2023-05-23T01:10:08;94423.75;;;12.24;75.87
58879;BME280;44660;42.664;23.266;2023-05-23T01:15:18;94430.44;;;12.27;75.82
58879;BME280;44660;42.664;23.266;2023-05-23T01:18:27;94430.91;;;12.18;75.07
58879;BME280;44660;42.664;23.266;2023-05-23T01:20:55;94437.84;;;12.19;75.41
58879;BME280;44660;42.664;23.266;2023-05-23T01:26:48;94435.13;;;12.14;75.21
58879;BME280;44660;42.664;23.266;2023-05-23T01:29:25;94417.09;;;11.94;74.52
58879;BME280;44660;42.664;23.266;2023-05-23T01:31:54;94437.22;;;12.07;75.01
58879;BME280;44660;42.664;23.266;2023-05-23T01:34:21;94431.09;;;12.06;75.27
58879;BME280;44660;42.664;23.266;2023-05-23T01:36:49;94421.97;;;12.02;75.65
58879;BME280;44660;42.664;23.266;2023-05-23T01:39:15;94422.69;;;11.92;76.15
58879;BME280;44660;42.664;23.266;2023-05-23T01:41:41;94423.34;;;12.05;75.73
58879;BME280;44660;42.664;23.266;2023-05-23T01:44:06;94399.75;;;11.91;75.74
58879;BME280;44660;42.664;23.266;2023-05-23T01:46:33;94420.38;;;12.01;75.83
58879;BME280;44660;42.664;23.266;2023-05-23T01:49:02;94398.78;;;11.70;75.48
58879;BME280;44660;42.664;23.266;2023-05-23T01:51:28;94425.22;;;11.77;75.52
58879;BME280;44660;42.664;23.266;2023-05-23T01:53:55;94409.13;;;11.67;75.70
58879;BME280;44660;42.664;23.266;2023-05-23T01:56:21;94410.28;;;11.76;75.41
58879;BME280;44660;42.664;23.266;2023-05-23T01:58:47;94399.78;;;11.64;75.26
58879;BME280;44660;42.664;23.266;2023-05-23T02:01:13;94416.66;;;11.75;75.15
58879;BME280;44660;42.664;23.266;2023-05-23T02:03:38;94404.63;;;11.67;75.71
58879;BME280;44660;42.664;23.266;2023-05-23T02:06:04;94410.28;;;11.76;76.42
58879;BME280;44660;42.664;23.266;2023-05-23T02:08:29;94404.56;;;11.62;75.88
58879;BME280;44660;42.664;23.266;2023-05-23T02:10:55;94417.63;;;11.64;76.29
58879;BME280;44660;42.664;23.266;2023-05-23T02:13:20;94417.88;;;11.62;76.46
58879;BME280;44660;42.664;23.266;2023-05-23T02:15:46;94421.63;;;11.66;75.85
58879;BME280;44660;42.664;23.266;2023-05-23T02:18:11;94419.97;;;11.60;76.14
58879;BME280;44660;42.664;23.266;2023-05-23T02:20:37;94425.91;;;11.67;76.49
58879;BME280;44660;42.664;23.266;2023-05-23T02:23:02;94412.25;;;11.58;76.62
58879;BME280;44660;42.664;23.266;2023-05-23T02:25:28;94429.94;;;11.70;76.98
58879;BME280;44660;42.664;23.266;2023-05-23T02:27:53;94420.34;;;11.69;76.05
58879;BME280;44660;42.664;23.266;2023-05-23T02:30:19;94412.84;;;11.66;75.94
58879;BME280;44660;42.664;23.266;2023-05-23T02:32:44;94407.72;;;11.59;75.16
58879;BME280;44660;42.664;23.266;2023-05-23T02:35:11;94406.41;;;11.62;75.36
58879;BME280;44660;42.664;23.266;2023-05-23T02:37:37;94385.53;;;11.48;75.51
58879;BME280;44660;42.664;23.266;2023-05-23T02:40:04;94308.09;;;10.95;76.19
58879;BME280;44660;42.664;23.266;2023-05-23T02:42:32;94407.66;;;11.54;75.96
58879;BME280;44660;42.664;23.266;2023-05-23T02:44:57;94410.63;;;11.57;76.09
58879;BME280;44660;42.664;23.266;2023-05-23T02:47:22;94398.06;;;11.53;76.81
58879;BME280;44660;42.664;23.266;2023-05-23T02:49:48;94365.69;;;11.34;76.87
58879;BME280;44660;42.664;23.266;2023-05-23T02:52:13;94392.22;;;11.51;76.99
58879;BME280;44660;42.664;23.266;2023-05-23T02:54:39;94404.69;;;11.50;77.12
58879;BME280;44660;42.664;23.266;2023-05-23T02:57:05;94390.00;;;11.42;77.33
58879;BME280;44660;42.664;23.266;2023-05-23T02:59:30;94413.56;;;11.56;76.88
58879;BME280;44660;42.664;23.266;2023-05-23T03:01:56;94399.34;;;11.45;76.94
58879;BME280;44660;42.664;23.266;2023-05-23T03:04:21;94392.16;;;11.46;76.67
58879;BME280;44660;42.664;23.266;2023-05-23T03:06:47;94397.50;;;11.46;76.91
58879;BME280;44660;42.664;23.266;2023-05-23T03:09:14;94422.84;;;11.53;77.07
58879;BME280;44660;42.664;23.266;2023-05-23T03:11:40;94409.75;;;11.47;77.76
58879;BME280;44660;42.664;23.266;2023-05-23T03:14:05;94411.94;;;11.55;77.45
58879;BME280;44660;42.664;23.266;2023-05-23T03:16:30;94419.94;;;11.55;77.81
58879;BME280;44660;42.664;23.266;2023-05-23T03:18:56;94357.28;;;11.20;77.38
58879;BME280;44660;42.664;23.266;2023-05-23T03:21:21;94423.41;;;11.55;77.43
58879;BME280;44660;42.664;23.266;2023-05-23T03:23:47;94418.78;;;11.46;76.83
58879;BME280;44660;42.664;23.266;2023-05-23T03:26:12;94397.38;;;11.35;77.78
58879;BME280;44660;42.664;23.266;2023-05-23T03:28:38;94416.06;;;11.40;77.44
58879;BME280;44660;42.664;23.266;2023-05-23T03:31:03;94429.44;;;11.46;77.12
58879;BME280;44660;42.664;23.266;2023-05-23T03:33:29;94417.69;;;11.41;76.95
58879;BME280;44660;42.664;23.266;2023-05-23T03:35:55;94426.16;;;11.38;76.88
58879;BME280;44660;42.664;23.266;2023-05-23T03:38:21;94432.22;;;11.34;77.48
58879;BME280;44660;42.664;23.266;2023-05-23T03:40:47;94436.25;;;11.36;77.71
58879;BME280;44660;42.664;23.266;2023-05-23T03:43:12;94432.53;;;11.37;77.06
58879;BME280;44660;42.664;23.266;2023-05-23T03:45:38;94445.25;;;11.30;77.02
58879;BME280;44660;42.664;23.266;2023-05-23T03:48:03;94445.78;;;11.32;77.76
58879;BME280;44660;42.664;23.266;2023-05-23T03:50:29;94423.09;;;11.24;77.71
58879;BME280;44660;42.664;23.266;2023-05-23T03:52:54;94437.38;;;11.40;78.00
58879;BME280;44660;42.664;23.266;2023-05-23T03:55:20;94426.91;;;11.34;78.80
58879;BME280;44660;42.664;23.266;2023-05-23T03:57:47;94436.56;;;11.40;79.01
58879;BME280;44660;42.664;23.266;2023-05-23T04:00:13;94455.13;;;11.57;79.55
58879;BME280;44660;42.664;23.266;2023-05-23T04:02:39;94453.25;;;11.57;79.30
58879;BME280;44660;42.664;23.266;2023-05-23T04:05:05;94445.31;;;11.63;79.87
58879;BME280;44660;42.664;23.266;2023-05-23T04:07:31;94448.31;;;11.71;79.90
58879;BME280;44660;42.664;23.266;2023-05-23T04:09:59;94448.09;;;11.78;79.73
58879;BME280;44660;42.664;23.266;2023-05-23T04:12:25;94420.59;;;11.67;80.04
58879;BME280;44660;42.664;23.266;2023-05-23T04:14:50;94442.66;;;11.90;80.17
58879;BME280;44660;42.664;23.266;2023-05-23T04:17:16;94440.28;;;11.93;79.58
58879;BME280;44660;42.664;23.266;2023-05-23T04:19:43;94444.31;;;11.96;79.08
58879;BME280;44660;42.664;23.266;2023-05-23T04:22:08;94438.41;;;11.94;79.10
58879;BME280;44660;42.664;23.266;2023-05-23T04:24:33;94416.25;;;11.88;79.79
58879;BME280;44660;42.664;23.266;2023-05-23T04:26:59;94424.59;;;11.97;78.92
58879;BME280;44660;42.664;23.266;2023-05-23T04:29:25;94430.03;;;12.07;79.04
58879;BME280;44660;42.664;23.266;2023-05-23T04:31:52;94423.59;;;12.03;79.05
58879;BME280;44660;42.664;23.266;2023-05-23T04:34:19;94385.75;;;11.74;78.98
58879;BME280;44660;42.664;23.266;2023-05-23T04:36:46;94427.03;;;11.99;79.07
58879;BME280;44660;42.664;23.266;2023-05-23T04:39:12;94435.63;;;12.11;78.99
58879;BME280;44660;42.664;23.266;2023-05-23T04:41:38;94436.38;;;12.01;79.01
58879;BME280;44660;42.664;23.266;2023-05-23T04:44:04;94442.69;;;11.95;79.37
58879;BME280;44660;42.664;23.266;2023-05-23T04:46:30;94410.69;;;11.63;79.56
58879;BME280;44660;42.664;23.266;2023-05-23T04:48:56;94452.31;;;11.96;79.39
58879;BME280;44660;42.664;23.266;2023-05-23T04:51:22;94414.75;;;11.70;78.99
58879;BME280;44660;42.664;23.266;2023-05-23T04:53:50;94447.38;;;11.83;79.22
58879;BME280;44660;42.664;23.266;2023-05-23T04:56:16;94453.84;;;11.92;79.60
58879;BME280;44660;42.664;23.266;2023-05-23T04:58:42;94468.88;;;12.03;79.43
58879;BME280;44660;42.664;23.266;2023-05-23T05:01:10;94462.47;;;11.99;79.99
58879;BME280;44660;42.664;23.266;2023-05-23T05:03:36;94463.81;;;12.02;79.97
58879;BME280;44660;42.664;23.266;2023-05-23T05:06:02;94466.81;;;12.11;80.08
58879;BME280;44660;42.664;23.266;2023-05-23T05:08:27;94439.03;;;12.01;80.01
58879;BME280;44660;42.664;23.266;2023-05-23T05:10:56;94467.72;;;12.21;79.73
58879;BME280;44660;42.664;23.266;2023-05-23T05:13:21;94457.84;;;12.22;79.90
58879;BME280;44660;42.664;23.266;2023-05-23T05:15:47;94442.88;;;12.16;79.56
58879;BME280;44660;42.664;23.266;2023-05-23T05:18:12;94473.41;;;12.35;79.50
58879;BME280;44660;42.664;23.266;2023-05-23T05:20:38;94461.44;;;12.38;79.79
58879;BME280;44660;42.664;23.266;2023-05-23T05:23:03;94474.06;;;12.53;79.81
58879;BME280;44660;42.664;23.266;2023-05-23T05:25:29;94459.38;;;12.50;79.06
58879;BME280;44660;42.664;23.266;2023-05-23T05:28:00;94451.00;;;12.36;78.81
58879;BME280;44660;42.664;23.266;2023-05-23T05:30:30;94444.59;;;12.32;79.21
58879;BME280;44660;42.664;23.266;2023-05-23T05:33:02;94470.56;;;12.47;79.29
58879;BME280;44660;42.664;23.266;2023-05-23T05:35:32;94458.81;;;12.43;79.70
58879;BME280;44660;42.664;23.266;2023-05-23T05:37:58;94475.69;;;12.54;79.49
58879;BME280;44660;42.664;23.266;2023-05-23T05:40:24;94470.31;;;12.49;79.70
58879;BME280;44660;42.664;23.266;2023-05-23T05:42:50;94475.75;;;12.64;80.69
58879;BME280;44660;42.664;23.266;2023-05-23T05:45:16;94481.16;;;12.80;80.31
58879;BME280;44660;42.664;23.266;2023-05-23T05:47:41;94473.16;;;12.80;79.71
58879;BME280;44660;42.664;23.266;2023-05-23T05:50:07;94473.78;;;12.92;79.39
58879;BME280;44660;42.664;23.266;2023-05-23T05:52:34;94488.78;;;13.03;79.66
58879;BME280;44660;42.664;23.266;2023-05-23T05:55:06;94464.50;;;13.05;79.11
58879;BME280;44660;42.664;23.266;2023-05-23T05:57:32;94487.56;;;13.32;79.37
58879;BME280;44660;42.664;23.266;2023-05-23T05:59:58;94475.88;;;13.38;78.16
58879;BME280;44660;42.664;23.266;2023-05-23T06:02:23;94483.69;;;13.50;77.91
58879;BME280;44660;42.664;23.266;2023-05-23T06:04:49;94488.47;;;13.53;77.44
58879;BME280;44660;42.664;23.266;2023-05-23T06:07:14;94482.91;;;13.65;77.29
58879;BME280;44660;42.664;23.266;2023-05-23T06:09:40;94465.53;;;13.67;77.23
58879;BME280;44660;42.664;23.266;2023-05-23T06:12:05;94484.81;;;13.85;76.41
58879;BME280;44660;42.664;23.266;2023-05-23T06:14:31;94479.47;;;13.95;75.96
58879;BME280;44660;42.664;23.266;2023-05-23T06:16:57;94480.03;;;14.08;76.18
58879;BME280;44660;42.664;23.266;2023-05-23T06:19:22;94469.91;;;14.10;75.23
58879;BME280;44660;42.664;23.266;2023-05-23T06:21:48;94484.88;;;14.11;74.58
58879;BME280;44660;42.664;23.266;2023-05-23T06:24:14;94474.69;;;14.13;74.54
58879;BME280;44660;42.664;23.266;2023-05-23T06:26:39;94473.63;;;14.29;74.24
58879;BME280;44660;42.664;23.266;2023-05-23T06:29:05;94483.25;;;14.56;75.52
58879;BME280;44660;42.664;23.266;2023-05-23T06:31:30;94474.97;;;14.73;73.87
58879;BME280;44660;42.664;23.266;2023-05-23T06:33:56;94442.88;;;14.68;73.34
58879;BME280;44660;42.664;23.266;2023-05-23T06:36:21;94463.94;;;14.95;72.83
58879;BME280;44660;42.664;23.266;2023-05-23T06:38:47;94469.75;;;15.28;71.51
58879;BME280;44660;42.664;23.266;2023-05-23T06:41:12;94473.94;;;15.50;70.24
58879;BME280;44660;42.664;23.266;2023-05-23T06:43:38;94478.09;;;15.72;70.25
58879;BME280;44660;42.664;23.266;2023-05-23T06:46:03;94470.28;;;15.86;68.07
58879;BME280;44660;42.664;23.266;2023-05-23T06:48:29;94465.69;;;15.96;69.65
58879;BME280;44660;42.664;23.266;2023-05-23T06:50:54;94428.19;;;15.91;67.79
58879;BME280;44660;42.664;23.266;2023-05-23T06:53:20;94460.13;;;16.22;67.76
58879;BME280;44660;42.664;23.266;2023-05-23T06:55:45;94459.66;;;16.49;66.58
58879;BME280;44660;42.664;23.266;2023-05-23T06:58:11;94439.94;;;16.59;67.34
58879;BME280;44660;42.664;23.266;2023-05-23T07:00:37;94449.59;;;16.90;66.90
58879;BME280;44660;42.664;23.266;2023-05-23T07:03:03;94449.06;;;17.17;64.92
58879;BME280;44660;42.664;23.266;2023-05-23T07:05:28;94455.72;;;17.44;64.73
58879;BME280;44660;42.664;23.266;2023-05-23T07:07:54;94445.22;;;17.67;64.31
58879;BME280;44660;42.664;23.266;2023-05-23T07:10:20;94429.81;;;17.72;62.75
58879;BME280;44660;42.664;23.266;2023-05-23T07:12:46;94446.94;;;18.01;63.77
58879;BME280;44660;42.664;23.266;2023-05-23T07:15:11;94448.78;;;18.19;62.25
58879;BME280;44660;42.664;23.266;2023-05-23T07:17:39;94433.69;;;18.23;61.17
58879;BME280;44660;42.664;23.266;2023-05-23T07:20:05;94437.59;;;18.31;62.49
58879;BME280;44660;42.664;23.266;2023-05-23T07:22:31;94432.03;;;18.41;61.77
58879;BME280;44660;42.664;23.266;2023-05-23T07:24:56;94430.25;;;18.51;60.29
58879;BME280;44660;42.664;23.266;2023-05-23T07:27:21;94420.50;;;18.55;60.59
58879;BME280;44660;42.664;23.266;2023-05-23T07:29:47;94414.16;;;18.65;59.34
58879;BME280;44660;42.664;23.266;2023-05-23T07:32:12;94426.13;;;18.86;57.88
58879;BME280;44660;42.664;23.266;2023-05-23T07:34:38;94427.28;;;18.99;60.05
58879;BME280;44660;42.664;23.266;2023-05-23T07:37:03;94382.56;;;18.84;59.35
58879;BME280;44660;42.664;23.266;2023-05-23T07:39:29;94420.00;;;19.28;59.11
58879;BME280;44660;42.664;23.266;2023-05-23T07:41:54;94414.50;;;19.47;60.68
58879;BME280;44660;42.664;23.266;2023-05-23T07:44:20;94413.75;;;19.69;58.85
58879;BME280;44660;42.664;23.266;2023-05-23T07:46:46;94411.22;;;19.86;56.72
58879;BME280;44660;42.664;23.266;2023-05-23T07:49:11;94411.72;;;20.11;58.10
58879;BME280;44660;42.664;23.266;2023-05-23T07:51:37;94410.81;;;20.38;55.78
58879;BME280;44660;42.664;23.266;2023-05-23T07:54:03;94416.84;;;20.67;55.51
58879;BME280;44660;42.664;23.266;2023-05-23T07:56:29;94406.25;;;21.02;55.73
58879;BME280;44660;42.664;23.266;2023-05-23T07:58:55;94407.81;;;21.34;54.04
58879;BME280;44660;42.664;23.266;2023-05-23T08:01:20;94400.06;;;21.59;54.74
58879;BME280;44660;42.664;23.266;2023-05-23T08:03:46;94401.53;;;21.92;51.50
58879;BME280;44660;42.664;23.266;2023-05-23T08:06:11;94401.38;;;22.14;53.42
58879;BME280;44660;42.664;23.266;2023-05-23T08:08:37;94392.59;;;22.35;50.22
58879;BME280;44660;42.664;23.266;2023-05-23T08:11:02;94395.59;;;22.60;49.76
58879;BME280;44660;42.664;23.266;2023-05-23T08:13:29;94399.22;;;22.73;49.04
58879;BME280;44660;42.664;23.266;2023-05-23T08:15:55;94397.09;;;22.96;47.60
58879;BME280;44660;42.664;23.266;2023-05-23T08:18:20;94404.84;;;23.15;48.81
58879;BME280;44660;42.664;23.266;2023-05-23T08:20:46;94370.69;;;23.23;48.36
58879;BME280;44660;42.664;23.266;2023-05-23T08:23:11;94388.53;;;23.54;48.18
58879;BME280;44660;42.664;23.266;2023-05-23T08:25:38;94393.50;;;23.73;48.79
58879;BME280;44660;42.664;23.266;2023-05-23T08:28:04;94382.16;;;23.79;48.98
58879;BME280;44660;42.664;23.266;2023-05-23T08:30:30;94392.13;;;23.88;45.52
58879;BME280;44660;42.664;23.266;2023-05-23T08:32:58;94397.19;;;23.98;45.92
58879;BME280;44660;42.664;23.266;2023-05-23T08:35:25;94378.53;;;24.18;46.98
58879;BME280;44660;42.664;23.266;2023-05-23T08:37:50;94386.16;;;24.37;46.55
58879;BME280;44660;42.664;23.266;2023-05-23T08:40:21;94383.72;;;24.56;45.34
58879;BME280;44660;42.664;23.266;2023-05-23T08:42:47;94383.56;;;24.74;44.88
58879;BME280;44660;42.664;23.266;2023-05-23T08:45:13;94377.16;;;24.78;41.58
58879;BME280;44660;42.664;23.266;2023-05-23T08:47:44;94378.59;;;24.88;41.71
58879;BME280;44660;42.664;23.266;2023-05-23T08:50:14;94382.81;;;24.98;43.57
58879;BME280;44660;42.664;23.266;2023-05-23T08:53:09;94376.03;;;25.17;42.12
58879;BME280;44660;42.664;23.266;2023-05-23T08:55:45;94372.88;;;25.27;41.00
58879;BME280;44660;42.664;23.266;2023-05-23T08:58:10;94372.56;;;25.41;39.72
58879;BME280;44660;42.664;23.266;2023-05-23T09:00:38;94381.50;;;25.54;39.23
58879;BME280;44660;42.664;23.266;2023-05-23T09:03:03;94369.72;;;25.50;41.37
58879;BME280;44660;42.664;23.266;2023-05-23T09:05:29;94370.59;;;25.54;41.76
58879;BME280;44660;42.664;23.266;2023-05-23T09:07:54;94364.69;;;25.64;39.53
58879;BME280;44660;42.664;23.266;2023-05-23T09:10:21;94362.44;;;25.66;38.90
58879;BME280;44660;42.664;23.266;2023-05-23T09:12:47;94370.34;;;25.71;39.11
58879;BME280;44660;42.664;23.266;2023-05-23T09:15:13;94364.22;;;25.74;40.79
58879;BME280;44660;42.664;23.266;2023-05-23T09:17:38;94317.66;;;25.26;36.56
58879;BME280;44660;42.664;23.266;2023-05-23T09:20:10;94364.94;;;25.47;34.98
58879;BME280;44660;42.664;23.266;2023-05-23T09:22:37;94360.38;;;25.51;35.92
58879;BME280;44660;42.664;23.266;2023-05-23T09:25:04;94362.31;;;25.63;37.26
58879;BME280;44660;42.664;23.266;2023-05-23T09:27:29;94346.78;;;25.63;34.99
58879;BME280;44660;42.664;23.266;2023-05-23T09:29:55;94340.06;;;25.73;34.86
58879;BME280;44660;42.664;23.266;2023-05-23T09:32:21;94345.03;;;25.83;34.76
58879;BME280;44660;42.664;23.266;2023-05-23T09:34:57;94356.50;;;25.77;34.72
58879;BME280;44660;42.664;23.266;2023-05-23T09:37:33;94350.72;;;25.78;36.46
58879;BME280;44660;42.664;23.266;2023-05-23T09:40:00;94352.44;;;25.70;34.57
58879;BME280;44660;42.664;23.266;2023-05-23T09:42:33;94346.09;;;25.66;35.42
58879;BME280;44660;42.664;23.266;2023-05-23T09:44:59;94344.97;;;25.55;33.75
58879;BME280;44660;42.664;23.266;2023-05-23T09:47:25;94312.09;;;25.23;33.17
58879;BME280;44660;42.664;23.266;2023-05-23T09:49:51;94348.16;;;25.32;32.88
58879;BME280;44660;42.664;23.266;2023-05-23T09:52:16;94329.81;;;25.17;32.70
58879;BME280;44660;42.664;23.266;2023-05-23T09:54:44;94323.91;;;24.90;31.78
58879;BME280;44660;42.664;23.266;2023-05-23T09:57:11;94330.38;;;24.39;33.52
58879;BME280;44660;42.664;23.266;2023-05-23T09:59:40;94331.53;;;24.51;34.42
58879;BME280;44660;42.664;23.266;2023-05-23T10:02:15;94293.00;;;24.36;33.53
58879;BME280;44660;42.664;23.266;2023-05-23T10:04:42;94327.34;;;24.53;32.49
58879;BME280;44660;42.664;23.266;2023-05-23T10:07:13;94337.75;;;24.51;32.29
58879;BME280;44660;42.664;23.266;2023-05-23T10:09:47;94332.75;;;24.41;32.02
58879;BME280;44660;42.664;23.266;2023-05-23T10:12:41;94310.63;;;24.18;33.34
58879;BME280;44660;42.664;23.266;2023-05-23T10:15:10;94336.25;;;24.29;33.31
58879;BME280;44660;42.664;23.266;2023-05-23T10:17:59;94338.00;;;24.25;34.50
58879;BME280;44660;42.664;23.266;2023-05-23T10:20:29;94329.88;;;24.25;33.05
58879;BME280;44660;42.664;23.266;2023-05-23T10:22:58;94306.06;;;24.09;32.15
58879;BME280;44660;42.664;23.266;2023-05-23T10:25:23;94300.63;;;24.09;32.09
58879;BME280;44660;42.664;23.266;2023-05-23T10:27:52;94316.28;;;24.25;33.07
58879;BME280;44660;42.664;23.266;2023-05-23T10:30:21;94322.66;;;24.41;33.10
58879;BME280;44660;42.664;23.266;2023-05-23T10:32:46;94325.81;;;24.31;31.99
58879;BME280;44660;42.664;23.266;2023-05-23T10:35:34;94320.38;;;24.31;32.56
58879;BME280;44660;42.664;23.266;2023-05-23T10:41:05;94300.94;;;24.41;33.38
58879;BME280;44660;42.664;23.266;2023-05-23T10:43:41;94309.81;;;24.51;31.95
58879;BME280;44660;42.664;23.266;2023-05-23T10:46:08;94311.03;;;24.41;30.83
58879;BME280;44660;42.664;23.266;2023-05-23T10:48:41;94303.88;;;24.36;31.91
58879;BME280;44660;42.664;23.266;2023-05-23T10:51:11;94303.69;;;24.54;31.62
58879;BME280;44660;42.664;23.266;2023-05-23T10:53:52;94296.72;;;24.65;31.67
58879;BME280;44660;42.664;23.266;2023-05-23T10:56:22;94292.88;;;24.66;32.43
58879;BME280;44660;42.664;23.266;2023-05-23T10:58:55;94295.34;;;24.71;31.49
58879;BME280;44660;42.664;23.266;2023-05-23T11:01:21;94304.88;;;24.77;31.89
58879;BME280;44660;42.664;23.266;2023-05-23T11:03:48;94303.47;;;24.59;30.50
58879;BME280;44660;42.664;23.266;2023-05-23T11:06:37;94294.53;;;24.58;30.30
58879;BME280;44660;42.664;23.266;2023-05-23T11:09:14;94304.78;;;24.40;31.01
58879;BME280;44660;42.664;23.266;2023-05-23T11:14:19;94291.09;;;24.49;30.07
58879;BME280;44660;42.664;23.266;2023-05-23T11:16:45;94287.81;;;24.43;30.03
58879;BME280;44660;42.664;23.266;2023-05-23T11:21:45;94271.22;;;24.11;31.46
58879;BME280;44660;42.664;23.266;2023-05-23T11:24:11;94286.09;;;23.93;31.26
58879;BME280;44660;42.664;23.266;2023-05-23T11:26:36;94271.53;;;23.76;31.63
58879;BME280;44660;42.664;23.266;2023-05-23T11:29:03;94266.03;;;23.64;32.09
58879;BME280;44660;42.664;23.266;2023-05-23T11:31:36;94280.13;;;23.78;32.19
58879;BME280;44660;42.664;23.266;2023-05-23T11:34:02;94272.91;;;23.83;31.47
58879;BME280;44660;42.664;23.266;2023-05-23T11:36:27;94263.84;;;23.78;31.70
58879;BME280;44660;42.664;23.266;2023-05-23T11:38:54;94269.53;;;23.86;31.46
58879;BME280;44660;42.664;23.266;2023-05-23T11:41:19;94258.94;;;23.93;31.38
58879;BME280;44660;42.664;23.266;2023-05-23T11:43:50;94254.78;;;23.95;30.76
58879;BME280;44660;42.664;23.266;2023-05-23T11:46:16;94263.19;;;23.81;31.18
58879;BME280;44660;42.664;23.266;2023-05-23T11:48:45;94254.78;;;23.74;31.42
58879;BME280;44660;42.664;23.266;2023-05-23T11:51:10;94263.66;;;23.84;31.85
58879;BME280;44660;42.664;23.266;2023-05-23T11:56:01;94261.59;;;23.80;32.42
58879;BME280;44660;42.664;23.266;2023-05-23T11:58:35;94250.16;;;23.96;31.99
58879;BME280;44660;42.664;23.266;2023-05-23T12:01:11;94256.38;;;23.96;30.46
58879;BME280;44660;42.664;23.266;2023-05-23T12:03:45;94246.34;;;23.88;31.02
58879;BME280;44660;42.664;23.266;2023-05-23T12:06:15;94249.59;;;23.81;30.74
58879;BME280;44660;42.664;23.266;2023-05-23T12:08:40;94242.59;;;23.80;30.96
58879;BME280;44660;42.664;23.266;2023-05-23T12:11:06;94239.78;;;23.77;31.08
58879;BME280;44660;42.664;23.266;2023-05-23T12:13:32;94250.06;;;23.84;30.69
58879;BME280;44660;42.664;23.266;2023-05-23T12:16:01;94233.31;;;23.81;31.70
58879;BME280;44660;42.664;23.266;2023-05-23T12:18:28;94232.28;;;23.95;30.35
58879;BME280;44660;42.664;23.266;2023-05-23T12:20:54;94229.28;;;23.88;31.30
58879;BME280;44660;42.664;23.266;2023-05-23T12:23:22;94228.91;;;23.77;31.96
58879;BME280;44660;42.664;23.266;2023-05-23T12:25:52;94230.75;;;23.85;32.32
58879;BME280;44660;42.664;23.266;2023-05-23T12:28:19;94224.34;;;24.02;32.62
58879;BME280;44660;42.664;23.266;2023-05-23T12:30:44;94216.13;;;24.11;31.83
58879;BME280;44660;42.664;23.266;2023-05-23T12:33:10;94201.28;;;24.08;31.35
58879;BME280;44660;42.664;23.266;2023-05-23T12:35:36;94211.28;;;24.17;30.79
58879;BME280;44660;42.664;23.266;2023-05-23T12:38:04;94207.09;;;24.19;31.04
58879;BME280;44660;42.664;23.266;2023-05-23T12:40:31;94211.94;;;24.13;31.67
58879;BME280;44660;42.664;23.266;2023-05-23T12:42:57;94201.28;;;24.08;30.94
58879;BME280;44660;42.664;23.266;2023-05-23T12:45:25;94206.78;;;23.87;30.30
58879;BME280;44660;42.664;23.266;2023-05-23T12:50:20;94210.09;;;23.93;31.90
58879;BME280;44660;42.664;23.266;2023-05-23T12:52:46;94181.75;;;23.81;31.49
58879;BME280;44660;42.664;23.266;2023-05-23T12:55:11;94192.41;;;23.87;31.23
58879;BME280;44660;42.664;23.266;2023-05-23T12:57:37;94204.50;;;23.89;31.73
58879;BME280;44660;42.664;23.266;2023-05-23T13:00:03;94186.13;;;23.95;30.69
58879;BME280;44660;42.664;23.266;2023-05-23T13:02:28;94199.94;;;24.02;31.13
58879;BME280;44660;42.664;23.266;2023-05-23T13:04:54;94192.47;;;23.99;31.28
58879;BME280;44660;42.664;23.266;2023-05-23T13:07:21;94179.22;;;23.98;29.56
58879;BME280;44660;42.664;23.266;2023-05-23T13:09:47;94192.88;;;23.89;29.82